sensor_id;sensor_type;location;lat;lon;timestamp;P1;durP1;ratioP1;P2;durP2;ratioP2
4448;SDS011;2237;51.870;6.160;2023-02-28T00:00:20;8.30;;;3.15;;
4448;SDS011;2237;51.870;6.160;2023-02-28T00:02:47;7.75;;;3.90;;
4448;SDS011;2237;51.870;6.160;2023-02-28T00:05:16;5.50;;;3.08;;
4448;SDS011;2237;51.870;6.160;2023-02-28T00:07:44;10.27;;;3.47;;
4448;SDS011;2237;51.870;6.160;2023-02-28T00:10:12;6.18;;;3.22;;
4448;SDS011;2237;51.870;6.160;2023-02-28T00:12:41;7.50;;;3.27;;
4448;SDS011;2237;51.870;6.160;2023-02-28T00:15:08;5.57;;;2.90;;
4448;SDS011;2237;51.870;6.160;2023-02-28T00:17:36;5.13;;;2.90;;
4448;SDS011;2237;51.870;6.160;2023-02-28T00:20:04;8.45;;;3.42;;
4448;SDS011;2237;51.870;6.160;2023-02-28T00:22:36;9.50;;;4.10;;
4448;SDS011;2237;51.870;6.160;2023-02-28T00:25:04;9.15;;;4.43;;
4448;SDS011;2237;51.870;6.160;2023-02-28T00:27:33;8.10;;;3.95;;
4448;SDS011;2237;51.870;6.160;2023-02-28T00:30:01;10.30;;;4.47;;
4448;SDS011;2237;51.870;6.160;2023-02-28T00:32:27;9.30;;;4.70;;
4448;SDS011;2237;51.870;6.160;2023-02-28T00:34:54;8.57;;;4.22;;
4448;SDS011;2237;51.870;6.160;2023-02-28T00:37:20;12.90;;;5.20;;
4448;SDS011;2237;51.870;6.160;2023-02-28T00:39:46;10.27;;;4.80;;
4448;SDS011;2237;51.870;6.160;2023-02-28T00:42:13;12.30;;;4.65;;
4448;SDS011;2237;51.870;6.160;2023-02-28T00:44:39;11.73;;;4.82;;
4448;SDS011;2237;51.870;6.160;2023-02-28T00:47:05;14.00;;;5.60;;
4448;SDS011;2237;51.870;6.160;2023-02-28T00:49:32;11.15;;;4.70;;
4448;SDS011;2237;51.870;6.160;2023-02-28T00:51:58;9.32;;;4.45;;
4448;SDS011;2237;51.870;6.160;2023-02-28T00:54:25;9.73;;;4.88;;
4448;SDS011;2237;51.870;6.160;2023-02-28T00:56:51;8.50;;;4.90;;
4448;SDS011;2237;51.870;6.160;2023-02-28T00:59:18;8.52;;;3.90;;
4448;SDS011;2237;51.870;6.160;2023-02-28T01:01:45;8.68;;;4.43;;
4448;SDS011;2237;51.870;6.160;2023-02-28T01:04:13;8.77;;;4.13;;
4448;SDS011;2237;51.870;6.160;2023-02-28T01:06:40;7.10;;;3.90;;
4448;SDS011;2237;51.870;6.160;2023-02-28T01:09:07;6.28;;;3.15;;
4448;SDS011;2237;51.870;6.160;2023-02-28T01:11:34;7.30;;;3.42;;
4448;SDS011;2237;51.870;6.160;2023-02-28T01:14:01;8.15;;;3.50;;
4448;SDS011;2237;51.870;6.160;2023-02-28T01:16:28;7.20;;;3.92;;
4448;SDS011;2237;51.870;6.160;2023-02-28T01:18:54;6.90;;;3.13;;
4448;SDS011;2237;51.870;6.160;2023-02-28T01:21:21;7.85;;;4.03;;
4448;SDS011;2237;51.870;6.160;2023-02-28T01:23:48;8.65;;;3.92;;
4448;SDS011;2237;51.870;6.160;2023-02-28T01:26:24;5.75;;;2.70;;
4448;SDS011;2237;51.870;6.160;2023-02-28T01:28:51;4.90;;;2.63;;
4448;SDS011;2237;51.870;6.160;2023-02-28T01:31:19;8.35;;;3.08;;
4448;SDS011;2237;51.870;6.160;2023-02-28T01:33:46;6.75;;;3.15;;
4448;SDS011;2237;51.870;6.160;2023-02-28T01:36:14;7.10;;;3.25;;
4448;SDS011;2237;51.870;6.160;2023-02-28T01:38:43;9.75;;;3.50;;
4448;SDS011;2237;51.870;6.160;2023-02-28T01:41:24;9.45;;;3.28;;
4448;SDS011;2237;51.870;6.160;2023-02-28T01:43:54;7.95;;;3.50;;
4448;SDS011;2237;51.870;6.160;2023-02-28T01:46:33;8.20;;;3.53;;
4448;SDS011;2237;51.870;6.160;2023-02-28T01:49:09;6.10;;;2.95;;
4448;SDS011;2237;51.870;6.160;2023-02-28T01:51:42;7.00;;;3.30;;
4448;SDS011;2237;51.870;6.160;2023-02-28T01:54:18;7.38;;;2.95;;
4448;SDS011;2237;51.870;6.160;2023-02-28T01:56:52;6.13;;;3.25;;
4448;SDS011;2237;51.870;6.160;2023-02-28T01:59:23;8.18;;;2.90;;
4448;SDS011;2237;51.870;6.160;2023-02-28T02:01:55;6.45;;;3.47;;
4448;SDS011;2237;51.870;6.160;2023-02-28T02:04:23;5.80;;;2.40;;
4448;SDS011;2237;51.870;6.160;2023-02-28T02:06:54;4.80;;;2.63;;
4448;SDS011;2237;51.870;6.160;2023-02-28T02:09:21;5.05;;;2.55;;
4448;SDS011;2237;51.870;6.160;2023-02-28T02:11:47;7.65;;;3.05;;
4448;SDS011;2237;51.870;6.160;2023-02-28T02:17:39;7.30;;;2.73;;
4448;SDS011;2237;51.870;6.160;2023-02-28T02:34:51;6.75;;;2.40;;
4448;SDS011;2237;51.870;6.160;2023-02-28T02:37:46;4.95;;;2.40;;
4448;SDS011;2237;51.870;6.160;2023-02-28T02:40:21;7.10;;;3.17;;
4448;SDS011;2237;51.870;6.160;2023-02-28T02:42:52;4.35;;;2.47;;
4448;SDS011;2237;51.870;6.160;2023-02-28T02:45:34;5.90;;;2.30;;
4448;SDS011;2237;51.870;6.160;2023-02-28T02:48:06;3.97;;;2.55;;
4448;SDS011;2237;51.870;6.160;2023-02-28T02:50:41;6.07;;;2.83;;
4448;SDS011;2237;51.870;6.160;2023-02-28T02:53:11;6.68;;;2.85;;
4448;SDS011;2237;51.870;6.160;2023-02-28T02:55:43;6.20;;;2.53;;
4448;SDS011;2237;51.870;6.160;2023-02-28T02:58:14;4.30;;;2.53;;
4448;SDS011;2237;51.870;6.160;2023-02-28T03:00:46;5.38;;;2.28;;
4448;SDS011;2237;51.870;6.160;2023-02-28T03:03:16;6.72;;;2.60;;
4448;SDS011;2237;51.870;6.160;2023-02-28T03:05:50;6.03;;;2.47;;
4448;SDS011;2237;51.870;6.160;2023-02-28T03:08:17;5.15;;;2.60;;
4448;SDS011;2237;51.870;6.160;2023-02-28T03:10:44;4.90;;;2.30;;
4448;SDS011;2237;51.870;6.160;2023-02-28T03:13:21;3.97;;;2.45;;
4448;SDS011;2237;51.870;6.160;2023-02-28T03:16:01;7.47;;;3.20;;
4448;SDS011;2237;51.870;6.160;2023-02-28T03:21:24;7.05;;;2.88;;
4448;SDS011;2237;51.870;6.160;2023-02-28T03:24:03;4.97;;;2.58;;
4448;SDS011;2237;51.870;6.160;2023-02-28T03:26:34;4.43;;;2.45;;
4448;SDS011;2237;51.870;6.160;2023-02-28T03:29:13;5.65;;;3.00;;
4448;SDS011;2237;51.870;6.160;2023-02-28T03:34:41;6.60;;;2.50;;
4448;SDS011;2237;51.870;6.160;2023-02-28T03:37:15;7.13;;;3.20;;
4448;SDS011;2237;51.870;6.160;2023-02-28T03:39:51;7.97;;;2.35;;
4448;SDS011;2237;51.870;6.160;2023-02-28T03:42:27;4.30;;;2.25;;
4448;SDS011;2237;51.870;6.160;2023-02-28T03:44:59;11.75;;;3.05;;
4448;SDS011;2237;51.870;6.160;2023-02-28T03:47:31;4.38;;;2.17;;
4448;SDS011;2237;51.870;6.160;2023-02-28T03:50:25;5.53;;;2.70;;
4448;SDS011;2237;51.870;6.160;2023-02-28T03:52:58;6.10;;;2.50;;
4448;SDS011;2237;51.870;6.160;2023-02-28T03:55:38;6.95;;;2.63;;
4448;SDS011;2237;51.870;6.160;2023-02-28T03:58:14;4.47;;;2.50;;
4448;SDS011;2237;51.870;6.160;2023-02-28T04:00:48;5.57;;;3.05;;
4448;SDS011;2237;51.870;6.160;2023-02-28T04:03:20;4.47;;;2.20;;
4448;SDS011;2237;51.870;6.160;2023-02-28T04:05:49;4.47;;;2.47;;
4448;SDS011;2237;51.870;6.160;2023-02-28T04:10:45;6.15;;;2.53;;
4448;SDS011;2237;51.870;6.160;2023-02-28T04:13:18;5.43;;;2.67;;
4448;SDS011;2237;51.870;6.160;2023-02-28T04:15:44;4.93;;;2.85;;
4448;SDS011;2237;51.870;6.160;2023-02-28T04:18:10;4.95;;;2.55;;
4448;SDS011;2237;51.870;6.160;2023-02-28T04:20:37;7.20;;;2.90;;
4448;SDS011;2237;51.870;6.160;2023-02-28T04:23:03;6.05;;;3.05;;
4448;SDS011;2237;51.870;6.160;2023-02-28T04:25:29;6.50;;;2.50;;
4448;SDS011;2237;51.870;6.160;2023-02-28T04:27:56;6.55;;;2.70;;
4448;SDS011;2237;51.870;6.160;2023-02-28T04:30:22;7.93;;;3.30;;
4448;SDS011;2237;51.870;6.160;2023-02-28T04:32:48;5.35;;;2.65;;
4448;SDS011;2237;51.870;6.160;2023-02-28T04:35:15;7.90;;;3.13;;
4448;SDS011;2237;51.870;6.160;2023-02-28T04:37:41;5.68;;;3.05;;
4448;SDS011;2237;51.870;6.160;2023-02-28T04:40:08;8.85;;;3.05;;
4448;SDS011;2237;51.870;6.160;2023-02-28T04:42:35;8.00;;;3.15;;
4448;SDS011;2237;51.870;6.160;2023-02-28T04:45:02;7.05;;;3.10;;
4448;SDS011;2237;51.870;6.160;2023-02-28T04:47:29;6.28;;;3.13;;
4448;SDS011;2237;51.870;6.160;2023-02-28T04:49:55;7.82;;;3.65;;
4448;SDS011;2237;51.870;6.160;2023-02-28T04:52:22;8.68;;;3.20;;
4448;SDS011;2237;51.870;6.160;2023-02-28T04:54:48;9.15;;;3.20;;
4448;SDS011;2237;51.870;6.160;2023-02-28T04:57:15;6.80;;;3.67;;
4448;SDS011;2237;51.870;6.160;2023-02-28T04:59:41;6.30;;;3.40;;
4448;SDS011;2237;51.870;6.160;2023-02-28T05:02:08;6.10;;;2.70;;
4448;SDS011;2237;51.870;6.160;2023-02-28T05:04:34;6.28;;;3.53;;
4448;SDS011;2237;51.870;6.160;2023-02-28T05:07:02;7.15;;;3.10;;
4448;SDS011;2237;51.870;6.160;2023-02-28T05:09:29;9.48;;;3.75;;
4448;SDS011;2237;51.870;6.160;2023-02-28T05:11:55;8.05;;;3.70;;
4448;SDS011;2237;51.870;6.160;2023-02-28T05:14:22;6.60;;;3.28;;
4448;SDS011;2237;51.870;6.160;2023-02-28T05:16:48;7.55;;;3.85;;
4448;SDS011;2237;51.870;6.160;2023-02-28T05:19:15;6.55;;;3.75;;
4448;SDS011;2237;51.870;6.160;2023-02-28T05:21:48;8.40;;;3.63;;
4448;SDS011;2237;51.870;6.160;2023-02-28T05:24:17;8.27;;;3.85;;
4448;SDS011;2237;51.870;6.160;2023-02-28T05:26:49;8.05;;;3.88;;
4448;SDS011;2237;51.870;6.160;2023-02-28T05:29:17;9.18;;;4.22;;
4448;SDS011;2237;51.870;6.160;2023-02-28T05:31:43;7.85;;;3.97;;
4448;SDS011;2237;51.870;6.160;2023-02-28T05:34:10;6.90;;;3.65;;
4448;SDS011;2237;51.870;6.160;2023-02-28T05:36:38;7.90;;;4.13;;
4448;SDS011;2237;51.870;6.160;2023-02-28T05:39:05;6.43;;;3.58;;
4448;SDS011;2237;51.870;6.160;2023-02-28T05:41:33;6.65;;;3.47;;
4448;SDS011;2237;51.870;6.160;2023-02-28T05:43:59;6.28;;;3.40;;
4448;SDS011;2237;51.870;6.160;2023-02-28T05:46:26;12.35;;;4.72;;
4448;SDS011;2237;51.870;6.160;2023-02-28T05:48:52;12.10;;;5.40;;
4448;SDS011;2237;51.870;6.160;2023-02-28T05:51:19;8.80;;;3.85;;
4448;SDS011;2237;51.870;6.160;2023-02-28T05:53:45;10.30;;;4.63;;
4448;SDS011;2237;51.870;6.160;2023-02-28T05:56:13;5.90;;;3.40;;
4448;SDS011;2237;51.870;6.160;2023-02-28T05:58:39;10.57;;;3.95;;
4448;SDS011;2237;51.870;6.160;2023-02-28T06:04:01;9.00;;;3.88;;
4448;SDS011;2237;51.870;6.160;2023-02-28T06:06:29;10.20;;;4.13;;
4448;SDS011;2237;51.870;6.160;2023-02-28T06:08:56;8.68;;;3.47;;
4448;SDS011;2237;51.870;6.160;2023-02-28T06:11:23;10.15;;;3.55;;
4448;SDS011;2237;51.870;6.160;2023-02-28T06:13:54;12.43;;;3.83;;
4448;SDS011;2237;51.870;6.160;2023-02-28T06:16:21;6.93;;;3.40;;
4448;SDS011;2237;51.870;6.160;2023-02-28T06:18:48;6.35;;;3.30;;
4448;SDS011;2237;51.870;6.160;2023-02-28T06:21:15;7.68;;;3.90;;
4448;SDS011;2237;51.870;6.160;2023-02-28T06:23:41;7.85;;;3.72;;
4448;SDS011;2237;51.870;6.160;2023-02-28T06:26:07;6.93;;;3.95;;
4448;SDS011;2237;51.870;6.160;2023-02-28T06:28:33;9.63;;;3.63;;
4448;SDS011;2237;51.870;6.160;2023-02-28T06:31:05;6.40;;;3.83;;
4448;SDS011;2237;51.870;6.160;2023-02-28T06:33:36;7.15;;;3.30;;
4448;SDS011;2237;51.870;6.160;2023-02-28T06:36:03;6.82;;;3.25;;
4448;SDS011;2237;51.870;6.160;2023-02-28T06:38:31;5.40;;;3.15;;
4448;SDS011;2237;51.870;6.160;2023-02-28T06:40:59;8.60;;;3.28;;
4448;SDS011;2237;51.870;6.160;2023-02-28T06:43:29;5.15;;;2.80;;
4448;SDS011;2237;51.870;6.160;2023-02-28T06:48:25;6.50;;;2.80;;
4448;SDS011;2237;51.870;6.160;2023-02-28T06:50:52;5.70;;;2.58;;
4448;SDS011;2237;51.870;6.160;2023-02-28T06:53:27;5.25;;;2.40;;
4448;SDS011;2237;51.870;6.160;2023-02-28T06:55:54;6.15;;;2.47;;
4448;SDS011;2237;51.870;6.160;2023-02-28T06:58:20;10.60;;;3.88;;
4448;SDS011;2237;51.870;6.160;2023-02-28T07:00:49;6.28;;;2.33;;
4448;SDS011;2237;51.870;6.160;2023-02-28T07:06:22;7.13;;;2.83;;
4448;SDS011;2237;51.870;6.160;2023-02-28T07:08:49;5.97;;;2.60;;
4448;SDS011;2237;51.870;6.160;2023-02-28T07:11:16;8.52;;;2.58;;
4448;SDS011;2237;51.870;6.160;2023-02-28T07:13:43;5.22;;;2.20;;
4448;SDS011;2237;51.870;6.160;2023-02-28T07:16:10;5.65;;;2.17;;
4448;SDS011;2237;51.870;6.160;2023-02-28T07:18:37;11.80;;;5.00;;
4448;SDS011;2237;51.870;6.160;2023-02-28T07:21:04;6.70;;;2.50;;
4448;SDS011;2237;51.870;6.160;2023-02-28T07:23:32;4.20;;;2.30;;
4448;SDS011;2237;51.870;6.160;2023-02-28T07:25:59;3.80;;;2.03;;
4448;SDS011;2237;51.870;6.160;2023-02-28T07:28:26;4.38;;;1.92;;
4448;SDS011;2237;51.870;6.160;2023-02-28T07:30:52;4.90;;;2.20;;
4448;SDS011;2237;51.870;6.160;2023-02-28T07:33:18;5.80;;;2.38;;
4448;SDS011;2237;51.870;6.160;2023-02-28T07:35:45;7.80;;;2.40;;
4448;SDS011;2237;51.870;6.160;2023-02-28T07:38:11;4.88;;;2.30;;
4448;SDS011;2237;51.870;6.160;2023-02-28T07:40:39;4.13;;;1.95;;
4448;SDS011;2237;51.870;6.160;2023-02-28T07:43:05;4.10;;;1.98;;
4448;SDS011;2237;51.870;6.160;2023-02-28T07:45:32;5.13;;;2.03;;
4448;SDS011;2237;51.870;6.160;2023-02-28T07:48:00;6.78;;;2.17;;
4448;SDS011;2237;51.870;6.160;2023-02-28T07:50:27;3.78;;;2.25;;
4448;SDS011;2237;51.870;6.160;2023-02-28T07:52:57;4.65;;;2.10;;
4448;SDS011;2237;51.870;6.160;2023-02-28T07:55:24;4.97;;;2.08;;
4448;SDS011;2237;51.870;6.160;2023-02-28T07:57:50;4.05;;;1.95;;
4448;SDS011;2237;51.870;6.160;2023-02-28T08:00:17;7.30;;;1.85;;
4448;SDS011;2237;51.870;6.160;2023-02-28T08:02:43;5.88;;;2.00;;
4448;SDS011;2237;51.870;6.160;2023-02-28T08:05:10;3.40;;;1.73;;
4448;SDS011;2237;51.870;6.160;2023-02-28T08:07:36;3.25;;;1.75;;
4448;SDS011;2237;51.870;6.160;2023-02-28T08:10:03;3.25;;;1.77;;
4448;SDS011;2237;51.870;6.160;2023-02-28T08:12:31;4.30;;;1.63;;
4448;SDS011;2237;51.870;6.160;2023-02-28T08:14:58;3.90;;;1.67;;
4448;SDS011;2237;51.870;6.160;2023-02-28T08:17:24;3.70;;;1.67;;
4448;SDS011;2237;51.870;6.160;2023-02-28T08:19:50;3.65;;;1.60;;
4448;SDS011;2237;51.870;6.160;2023-02-28T08:22:17;2.95;;;1.45;;
4448;SDS011;2237;51.870;6.160;2023-02-28T08:24:43;3.78;;;1.60;;
4448;SDS011;2237;51.870;6.160;2023-02-28T08:27:09;2.25;;;1.50;;
4448;SDS011;2237;51.870;6.160;2023-02-28T08:29:36;2.00;;;0.90;;
4448;SDS011;2237;51.870;6.160;2023-02-28T08:32:04;3.50;;;1.30;;
4448;SDS011;2237;51.870;6.160;2023-02-28T08:34:39;2.53;;;1.40;;
4448;SDS011;2237;51.870;6.160;2023-02-28T08:37:06;3.70;;;1.40;;
4448;SDS011;2237;51.870;6.160;2023-02-28T08:39:35;4.25;;;2.00;;
4448;SDS011;2237;51.870;6.160;2023-02-28T08:42:02;3.63;;;1.63;;
4448;SDS011;2237;51.870;6.160;2023-02-28T08:46:59;2.10;;;1.38;;
4448;SDS011;2237;51.870;6.160;2023-02-28T08:49:25;3.70;;;1.40;;
4448;SDS011;2237;51.870;6.160;2023-02-28T08:51:52;1.63;;;0.57;;
4448;SDS011;2237;51.870;6.160;2023-02-28T08:54:18;3.47;;;1.50;;
4448;SDS011;2237;51.870;6.160;2023-02-28T08:56:45;2.75;;;1.50;;
4448;SDS011;2237;51.870;6.160;2023-02-28T08:59:15;2.95;;;1.20;;
4448;SDS011;2237;51.870;6.160;2023-02-28T09:01:42;2.05;;;1.00;;
4448;SDS011;2237;51.870;6.160;2023-02-28T09:04:09;2.72;;;1.20;;
4448;SDS011;2237;51.870;6.160;2023-02-28T09:06:40;1.35;;;0.95;;
4448;SDS011;2237;51.870;6.160;2023-02-28T09:09:07;2.83;;;1.00;;
4448;SDS011;2237;51.870;6.160;2023-02-28T09:11:35;3.15;;;1.17;;
4448;SDS011;2237;51.870;6.160;2023-02-28T09:14:02;4.57;;;1.20;;
4448;SDS011;2237;51.870;6.160;2023-02-28T09:16:32;2.80;;;1.02;;
4448;SDS011;2237;51.870;6.160;2023-02-28T09:19:00;2.00;;;1.20;;
4448;SDS011;2237;51.870;6.160;2023-02-28T09:21:27;2.20;;;1.10;;
4448;SDS011;2237;51.870;6.160;2023-02-28T09:23:54;3.53;;;1.23;;
4448;SDS011;2237;51.870;6.160;2023-02-28T09:26:22;2.58;;;1.40;;
4448;SDS011;2237;51.870;6.160;2023-02-28T09:28:51;3.47;;;1.20;;
4448;SDS011;2237;51.870;6.160;2023-02-28T09:31:24;2.75;;;1.30;;
4448;SDS011;2237;51.870;6.160;2023-02-28T09:33:53;1.80;;;1.20;;
4448;SDS011;2237;51.870;6.160;2023-02-28T09:36:22;3.13;;;0.85;;
4448;SDS011;2237;51.870;6.160;2023-02-28T09:38:59;2.13;;;1.20;;
4448;SDS011;2237;51.870;6.160;2023-02-28T09:41:26;3.75;;;1.20;;
4448;SDS011;2237;51.870;6.160;2023-02-28T09:44:02;2.10;;;0.80;;
4448;SDS011;2237;51.870;6.160;2023-02-28T09:46:40;3.60;;;1.40;;
4448;SDS011;2237;51.870;6.160;2023-02-28T09:49:11;3.92;;;1.83;;
4448;SDS011;2237;51.870;6.160;2023-02-28T09:54:26;1.40;;;0.60;;
4448;SDS011;2237;51.870;6.160;2023-02-28T10:05:14;2.78;;;1.38;;
4448;SDS011;2237;51.870;6.160;2023-02-28T10:10:29;2.75;;;1.10;;
4448;SDS011;2237;51.870;6.160;2023-02-28T10:16:08;2.38;;;1.20;;
4448;SDS011;2237;51.870;6.160;2023-02-28T10:19:23;1.75;;;1.08;;
4448;SDS011;2237;51.870;6.160;2023-02-28T10:21:31;0.35;;;0.28;;
4448;SDS011;2237;51.870;6.160;2023-02-28T10:24:04;2.45;;;0.98;;
4448;SDS011;2237;51.870;6.160;2023-02-28T10:26:56;1.42;;;0.77;;
4448;SDS011;2237;51.870;6.160;2023-02-28T10:29:28;1.38;;;0.70;;
4448;SDS011;2237;51.870;6.160;2023-02-28T10:31:58;1.50;;;1.00;;
4448;SDS011;2237;51.870;6.160;2023-02-28T10:34:28;2.95;;;1.10;;
4448;SDS011;2237;51.870;6.160;2023-02-28T10:36:55;3.72;;;1.50;;
4448;SDS011;2237;51.870;6.160;2023-02-28T10:42:23;1.80;;;0.80;;
4448;SDS011;2237;51.870;6.160;2023-02-28T10:45:04;3.42;;;0.82;;
4448;SDS011;2237;51.870;6.160;2023-02-28T10:50:32;2.20;;;0.73;;
4448;SDS011;2237;51.870;6.160;2023-02-28T10:55:36;0.60;;;0.47;;
4448;SDS011;2237;51.870;6.160;2023-02-28T10:58:03;1.75;;;0.85;;
4448;SDS011;2237;51.870;6.160;2023-02-28T11:00:49;2.60;;;0.85;;
4448;SDS011;2237;51.870;6.160;2023-02-28T11:03:33;1.27;;;0.70;;
4448;SDS011;2237;51.870;6.160;2023-02-28T11:06:07;2.35;;;0.73;;
4448;SDS011;2237;51.870;6.160;2023-02-28T11:08:45;3.95;;;0.70;;
4448;SDS011;2237;51.870;6.160;2023-02-28T11:11:13;0.93;;;0.50;;
4448;SDS011;2237;51.870;6.160;2023-02-28T11:13:40;1.00;;;0.63;;
4448;SDS011;2237;51.870;6.160;2023-02-28T11:16:09;0.50;;;0.30;;
4448;SDS011;2237;51.870;6.160;2023-02-28T11:21:22;0.93;;;0.57;;
4448;SDS011;2237;51.870;6.160;2023-02-28T11:24:00;1.45;;;1.05;;
4448;SDS011;2237;51.870;6.160;2023-02-28T11:26:41;2.72;;;0.85;;
4448;SDS011;2237;51.870;6.160;2023-02-28T11:29:31;0.63;;;0.40;;
4448;SDS011;2237;51.870;6.160;2023-02-28T11:34:43;2.92;;;0.98;;
4448;SDS011;2237;51.870;6.160;2023-02-28T11:37:15;1.60;;;0.80;;
4448;SDS011;2237;51.870;6.160;2023-02-28T11:39:44;2.03;;;0.80;;
4448;SDS011;2237;51.870;6.160;2023-02-28T11:47:40;0.90;;;0.75;;
4448;SDS011;2237;51.870;6.160;2023-02-28T11:50:37;1.45;;;0.80;;
4448;SDS011;2237;51.870;6.160;2023-02-28T11:53:17;1.77;;;0.90;;
4448;SDS011;2237;51.870;6.160;2023-02-28T11:58:34;1.80;;;0.80;;
4448;SDS011;2237;51.870;6.160;2023-02-28T12:09:13;2.42;;;1.13;;
4448;SDS011;2237;51.870;6.160;2023-02-28T12:12:07;0.67;;;0.50;;
4448;SDS011;2237;51.870;6.160;2023-02-28T12:14:53;2.13;;;0.70;;
4448;SDS011;2237;51.870;6.160;2023-02-28T12:20:00;2.28;;;1.05;;
4448;SDS011;2237;51.870;6.160;2023-02-28T12:25:40;2.70;;;1.25;;
4448;SDS011;2237;51.870;6.160;2023-02-28T12:28:17;3.25;;;1.40;;
4448;SDS011;2237;51.870;6.160;2023-02-28T12:33:22;3.13;;;1.20;;
4448;SDS011;2237;51.870;6.160;2023-02-28T12:35:56;3.38;;;1.52;;
4448;SDS011;2237;51.870;6.160;2023-02-28T12:38:36;1.98;;;0.80;;
4448;SDS011;2237;51.870;6.160;2023-02-28T12:41:16;2.78;;;0.65;;
4448;SDS011;2237;51.870;6.160;2023-02-28T12:43:48;0.98;;;0.60;;
4448;SDS011;2237;51.870;6.160;2023-02-28T12:46:32;1.52;;;0.57;;
4448;SDS011;2237;51.870;6.160;2023-02-28T12:49:06;1.10;;;0.85;;
4448;SDS011;2237;51.870;6.160;2023-02-28T12:51:38;1.00;;;0.50;;
4448;SDS011;2237;51.870;6.160;2023-02-28T12:54:09;2.17;;;0.77;;
4448;SDS011;2237;51.870;6.160;2023-02-28T12:56:43;1.52;;;0.80;;
4448;SDS011;2237;51.870;6.160;2023-02-28T13:02:33;1.73;;;0.70;;
4448;SDS011;2237;51.870;6.160;2023-02-28T13:05:19;1.90;;;1.05;;
4448;SDS011;2237;51.870;6.160;2023-02-28T13:10:48;1.30;;;0.80;;
4448;SDS011;2237;51.870;6.160;2023-02-28T13:13:21;2.92;;;1.13;;
4448;SDS011;2237;51.870;6.160;2023-02-28T13:16:09;1.40;;;0.70;;
4448;SDS011;2237;51.870;6.160;2023-02-28T13:18:37;3.75;;;1.00;;
4448;SDS011;2237;51.870;6.160;2023-02-28T13:21:06;1.13;;;0.52;;
4448;SDS011;2237;51.870;6.160;2023-02-28T13:23:56;1.20;;;0.68;;
4448;SDS011;2237;51.870;6.160;2023-02-28T13:29:39;1.90;;;0.82;;
4448;SDS011;2237;51.870;6.160;2023-02-28T13:34:41;1.70;;;0.95;;
4448;SDS011;2237;51.870;6.160;2023-02-28T13:37:34;2.22;;;1.00;;
4448;SDS011;2237;51.870;6.160;2023-02-28T13:40:22;3.22;;;1.10;;
4448;SDS011;2237;51.870;6.160;2023-02-28T13:42:54;3.90;;;0.90;;
4448;SDS011;2237;51.870;6.160;2023-02-28T13:45:22;2.38;;;0.95;;
4448;SDS011;2237;51.870;6.160;2023-02-28T13:47:51;4.07;;;1.58;;
4448;SDS011;2237;51.870;6.160;2023-02-28T14:07:17;2.97;;;1.80;;
4448;SDS011;2237;51.870;6.160;2023-02-28T14:09:50;2.88;;;1.10;;
4448;SDS011;2237;51.870;6.160;2023-02-28T14:16:03;1.35;;;1.00;;
4448;SDS011;2237;51.870;6.160;2023-02-28T14:18:17;1.75;;;1.08;;
4448;SDS011;2237;51.870;6.160;2023-02-28T14:20:49;4.63;;;1.20;;
4448;SDS011;2237;51.870;6.160;2023-02-28T14:23:42;1.95;;;1.10;;
4448;SDS011;2237;51.870;6.160;2023-02-28T14:29:29;1.58;;;0.93;;
4448;SDS011;2237;51.870;6.160;2023-02-28T14:32:21;2.17;;;1.13;;
4448;SDS011;2237;51.870;6.160;2023-02-28T14:38:18;2.28;;;1.48;;
4448;SDS011;2237;51.870;6.160;2023-02-28T14:40:49;3.60;;;1.05;;
4448;SDS011;2237;51.870;6.160;2023-02-28T14:43:19;1.45;;;0.70;;
4448;SDS011;2237;51.870;6.160;2023-02-28T14:45:51;3.08;;;0.90;;
4448;SDS011;2237;51.870;6.160;2023-02-28T14:48:20;2.28;;;0.93;;
4448;SDS011;2237;51.870;6.160;2023-02-28T14:50:52;2.88;;;1.13;;
4448;SDS011;2237;51.870;6.160;2023-02-28T14:53:20;1.42;;;1.13;;
4448;SDS011;2237;51.870;6.160;2023-02-28T14:55:49;3.10;;;1.90;;
4448;SDS011;2237;51.870;6.160;2023-02-28T14:58:26;2.15;;;1.60;;
4448;SDS011;2237;51.870;6.160;2023-02-28T15:00:54;1.40;;;1.25;;
4448;SDS011;2237;51.870;6.160;2023-02-28T15:03:24;2.03;;;1.10;;
4448;SDS011;2237;51.870;6.160;2023-02-28T15:05:59;1.42;;;1.05;;
4448;SDS011;2237;51.870;6.160;2023-02-28T15:08:28;1.92;;;1.10;;
4448;SDS011;2237;51.870;6.160;2023-02-28T15:10:56;2.28;;;1.13;;
4448;SDS011;2237;51.870;6.160;2023-02-28T15:13:30;1.90;;;1.20;;
4448;SDS011;2237;51.870;6.160;2023-02-28T15:16:17;1.10;;;0.90;;
4448;SDS011;2237;51.870;6.160;2023-02-28T15:18:59;1.85;;;1.20;;
4448;SDS011;2237;51.870;6.160;2023-02-28T15:21:32;2.08;;;1.17;;
4448;SDS011;2237;51.870;6.160;2023-02-28T15:26:34;1.30;;;1.10;;
4448;SDS011;2237;51.870;6.160;2023-02-28T15:29:13;2.10;;;1.20;;
4448;SDS011;2237;51.870;6.160;2023-02-28T15:31:43;1.80;;;1.27;;
4448;SDS011;2237;51.870;6.160;2023-02-28T15:34:26;4.50;;;1.58;;
4448;SDS011;2237;51.870;6.160;2023-02-28T15:39:56;1.80;;;1.23;;
4448;SDS011;2237;51.870;6.160;2023-02-28T15:42:30;3.00;;;1.45;;
4448;SDS011;2237;51.870;6.160;2023-02-28T15:44:57;2.30;;;1.30;;
4448;SDS011;2237;51.870;6.160;2023-02-28T15:47:26;1.52;;;1.20;;
4448;SDS011;2237;51.870;6.160;2023-02-28T15:49:59;1.77;;;0.90;;
4448;SDS011;2237;51.870;6.160;2023-02-28T15:55:11;1.95;;;1.25;;
4448;SDS011;2237;51.870;6.160;2023-02-28T15:57:50;1.80;;;1.02;;
4448;SDS011;2237;51.870;6.160;2023-02-28T16:00:20;3.70;;;1.67;;
4448;SDS011;2237;51.870;6.160;2023-02-28T16:02:49;3.05;;;1.20;;
4448;SDS011;2237;51.870;6.160;2023-02-28T16:05:20;1.52;;;1.20;;
4448;SDS011;2237;51.870;6.160;2023-02-28T16:07:54;1.98;;;1.13;;
4448;SDS011;2237;51.870;6.160;2023-02-28T16:10:22;6.40;;;1.63;;
4448;SDS011;2237;51.870;6.160;2023-02-28T16:12:55;1.88;;;1.20;;
4448;SDS011;2237;51.870;6.160;2023-02-28T16:15:24;2.17;;;1.33;;
4448;SDS011;2237;51.870;6.160;2023-02-28T16:17:53;2.15;;;1.20;;
4448;SDS011;2237;51.870;6.160;2023-02-28T16:20:21;2.88;;;1.40;;
4448;SDS011;2237;51.870;6.160;2023-02-28T16:22:50;3.80;;;1.40;;
4448;SDS011;2237;51.870;6.160;2023-02-28T16:25:18;1.85;;;1.17;;
4448;SDS011;2237;51.870;6.160;2023-02-28T16:27:59;2.15;;;1.35;;
4448;SDS011;2237;51.870;6.160;2023-02-28T16:30:27;2.67;;;1.45;;
4448;SDS011;2237;51.870;6.160;2023-02-28T16:35:24;3.05;;;1.65;;
4448;SDS011;2237;51.870;6.160;2023-02-28T16:37:51;2.35;;;1.50;;
4448;SDS011;2237;51.870;6.160;2023-02-28T16:40:19;1.77;;;1.25;;
4448;SDS011;2237;51.870;6.160;2023-02-28T16:42:50;4.28;;;1.83;;
4448;SDS011;2237;51.870;6.160;2023-02-28T16:45:20;2.65;;;1.60;;
4448;SDS011;2237;51.870;6.160;2023-02-28T16:47:48;2.05;;;1.33;;
4448;SDS011;2237;51.870;6.160;2023-02-28T16:50:19;3.50;;;1.80;;
4448;SDS011;2237;51.870;6.160;2023-02-28T16:52:48;2.60;;;1.60;;
4448;SDS011;2237;51.870;6.160;2023-02-28T16:55:15;2.75;;;1.63;;
4448;SDS011;2237;51.870;6.160;2023-02-28T16:57:42;2.30;;;1.40;;
4448;SDS011;2237;51.870;6.160;2023-02-28T17:00:11;2.88;;;1.70;;
4448;SDS011;2237;51.870;6.160;2023-02-28T17:02:39;3.25;;;1.50;;
4448;SDS011;2237;51.870;6.160;2023-02-28T17:05:08;3.28;;;1.85;;
4448;SDS011;2237;51.870;6.160;2023-02-28T17:07:37;4.72;;;2.00;;
4448;SDS011;2237;51.870;6.160;2023-02-28T17:10:14;2.78;;;1.48;;
4448;SDS011;2237;51.870;6.160;2023-02-28T17:12:46;3.78;;;1.55;;
4448;SDS011;2237;51.870;6.160;2023-02-28T17:15:14;2.72;;;1.92;;
4448;SDS011;2237;51.870;6.160;2023-02-28T17:17:42;4.10;;;2.38;;
4448;SDS011;2237;51.870;6.160;2023-02-28T17:20:13;4.25;;;2.60;;
4448;SDS011;2237;51.870;6.160;2023-02-28T17:22:40;2.95;;;2.00;;
4448;SDS011;2237;51.870;6.160;2023-02-28T17:25:07;5.40;;;2.40;;
4448;SDS011;2237;51.870;6.160;2023-02-28T17:27:34;8.07;;;3.53;;
4448;SDS011;2237;51.870;6.160;2023-02-28T17:30:02;9.60;;;4.30;;
4448;SDS011;2237;51.870;6.160;2023-02-28T17:32:35;6.70;;;3.90;;
4448;SDS011;2237;51.870;6.160;2023-02-28T17:35:01;9.93;;;3.80;;
4448;SDS011;2237;51.870;6.160;2023-02-28T17:37:27;6.65;;;3.88;;
4448;SDS011;2237;51.870;6.160;2023-02-28T17:39:54;7.28;;;4.35;;
4448;SDS011;2237;51.870;6.160;2023-02-28T17:42:21;6.68;;;3.55;;
4448;SDS011;2237;51.870;6.160;2023-02-28T17:44:47;7.78;;;3.05;;
4448;SDS011;2237;51.870;6.160;2023-02-28T17:47:13;5.50;;;2.55;;
4448;SDS011;2237;51.870;6.160;2023-02-28T17:49:40;6.88;;;2.20;;
4448;SDS011;2237;51.870;6.160;2023-02-28T17:52:07;3.80;;;2.05;;
4448;SDS011;2237;51.870;6.160;2023-02-28T17:54:34;4.03;;;2.20;;
4448;SDS011;2237;51.870;6.160;2023-02-28T17:57:00;3.75;;;2.28;;